createdAt,value
2018-05-04T00:00:11.431Z,9.69
2018-05-04T00:01:11.344Z,9.58
2018-05-04T00:02:11.256Z,9.64
2018-05-04T00:03:11.181Z,9.58
2018-05-04T00:04:11.095Z,9.61
2018-05-04T00:05:11.019Z,9.58
2018-05-04T00:06:10.932Z,9.61
2018-05-04T00:07:10.856Z,9.64
2018-05-04T00:08:10.771Z,9.65
2018-05-04T00:09:10.692Z,9.68
2018-05-04T00:10:10.608Z,9.53
2018-05-04T00:11:10.530Z,9.53
2018-05-04T00:12:10.448Z,9.64
2018-05-04T00:13:10.370Z,9.58
2018-05-04T00:14:10.282Z,9.58
2018-05-04T00:15:10.207Z,9.60
2018-05-04T00:16:10.118Z,9.54
2018-05-04T00:17:10.044Z,9.56
2018-05-04T00:18:09.955Z,9.51
2018-05-04T00:19:09.880Z,9.40
2018-05-04T00:20:09.795Z,9.46
2018-05-04T00:21:09.720Z,9.43
2018-05-04T00:22:09.633Z,9.40
2018-05-04T00:23:09.558Z,9.40
2018-05-04T00:24:09.469Z,9.35
2018-05-04T00:25:09.396Z,9.33
2018-05-04T00:26:09.306Z,9.28
2018-05-04T00:27:09.231Z,9.38
2018-05-04T00:28:09.150Z,9.32
2018-05-04T00:29:09.071Z,9.32
2018-05-04T00:30:08.984Z,9.21
2018-05-04T00:31:08.922Z,9.29
2018-05-04T00:32:08.819Z,9.23
2018-05-04T00:33:08.750Z,9.23
2018-05-04T00:34:08.656Z,9.20
2018-05-04T00:35:08.582Z,9.21
2018-05-04T00:36:08.497Z,9.14
2018-05-04T00:37:08.421Z,9.17
2018-05-04T00:38:08.332Z,9.10
2018-05-04T00:39:08.257Z,9.15
2018-05-04T00:40:08.174Z,9.11
2018-05-04T00:41:08.098Z,9.14
2018-05-04T00:42:08.010Z,9.08
2018-05-04T00:43:07.934Z,9.05
2018-05-04T00:44:07.846Z,9.02
2018-05-04T00:45:07.771Z,9.08
2018-05-04T00:46:07.682Z,9.13
2018-05-04T00:47:07.609Z,9.02
2018-05-04T00:48:07.523Z,9.01
2018-05-04T00:49:07.451Z,8.92
2018-05-04T00:50:07.360Z,8.96
2018-05-04T00:51:07.285Z,8.91
2018-05-04T00:52:07.198Z,8.98
2018-05-04T00:53:07.124Z,9.01
2018-05-04T00:54:07.035Z,8.95
2018-05-04T00:55:06.964Z,8.87
2018-05-04T00:56:06.872Z,8.92
2018-05-04T00:57:06.797Z,8.89
2018-05-04T00:58:06.722Z,8.89
2018-05-04T00:59:06.634Z,8.91
2018-05-04T01:00:06.553Z,8.89
2018-05-04T01:01:06.475Z,8.89
2018-05-04T01:02:06.386Z,8.89
2018-05-04T01:03:06.324Z,8.91
2018-05-04T01:04:06.226Z,8.91
2018-05-04T01:05:06.152Z,8.89
2018-05-04T01:06:06.060Z,8.86
2018-05-04T01:07:05.986Z,8.84
2018-05-04T01:08:05.898Z,8.84
2018-05-04T01:09:05.823Z,8.89
2018-05-04T01:10:05.736Z,8.91
2018-05-04T01:11:05.661Z,8.94
2018-05-04T01:12:05.577Z,8.86
2018-05-04T01:13:05.490Z,8.91
2018-05-04T01:14:05.426Z,8.84
2018-05-04T01:15:05.327Z,8.83
2018-05-04T01:16:05.258Z,8.86
2018-05-04T01:17:05.165Z,8.83
2018-05-04T01:18:05.090Z,8.91
2018-05-04T01:19:05.000Z,8.81
2018-05-04T01:20:04.932Z,8.84
2018-05-04T01:21:04.839Z,8.84
2018-05-04T01:22:04.767Z,8.79
2018-05-04T01:23:04.678Z,8.70
2018-05-04T01:24:04.601Z,8.71
2018-05-04T01:25:04.527Z,8.73
2018-05-04T01:26:04.440Z,8.74
2018-05-04T01:27:04.354Z,8.68
2018-05-04T01:28:04.276Z,8.71
2018-05-04T01:29:04.187Z,8.61
2018-05-04T01:30:04.114Z,8.70
2018-05-04T01:31:04.030Z,8.65
2018-05-04T01:32:03.953Z,8.66
2018-05-04T01:33:03.865Z,8.63
2018-05-04T01:34:03.790Z,8.70
2018-05-04T01:35:03.703Z,8.66
2018-05-04T01:36:03.627Z,8.63
2018-05-04T01:37:03.551Z,8.66
2018-05-04T01:38:03.452Z,8.58
2018-05-04T01:39:03.377Z,8.65
2018-05-04T01:40:03.290Z,8.56
2018-05-04T01:41:03.215Z,8.53
2018-05-04T01:42:03.127Z,8.58
2018-05-04T01:43:03.052Z,8.61
2018-05-04T01:44:02.970Z,8.52
2018-05-04T01:45:02.891Z,8.56
2018-05-04T01:46:02.804Z,8.56
2018-05-04T01:47:02.730Z,8.48
2018-05-04T01:48:02.642Z,8.43
2018-05-04T01:49:02.565Z,8.45
2018-05-04T01:50:02.480Z,8.40
2018-05-04T01:51:02.404Z,8.43
2018-05-04T01:52:02.317Z,8.41
2018-05-04T01:53:02.243Z,8.40
2018-05-04T01:54:02.155Z,8.33
2018-05-04T01:55:02.080Z,8.37
2018-05-04T01:56:02.009Z,8.40
2018-05-04T01:57:01.918Z,8.30
2018-05-04T01:58:01.838Z,8.29
2018-05-04T01:59:01.744Z,8.19
2018-05-04T02:00:01.667Z,8.41
2018-05-04T02:01:01.580Z,8.30
2018-05-04T02:02:01.504Z,8.36
2018-05-04T02:03:01.416Z,8.34
2018-05-04T02:04:01.346Z,8.36
2018-05-04T02:05:01.257Z,8.22
2018-05-04T02:06:01.181Z,8.22
2018-05-04T02:07:01.093Z,8.33
2018-05-04T02:08:01.018Z,8.25
2018-05-04T02:09:00.931Z,8.19
2018-05-04T02:10:00.856Z,8.20
2018-05-04T02:11:00.767Z,8.25
2018-05-04T02:12:00.692Z,8.18
2018-05-04T02:13:00.606Z,8.25
2018-05-04T02:14:00.530Z,8.19
2018-05-04T02:15:00.442Z,8.10
2018-05-04T02:16:00.358Z,8.10
2018-05-04T02:17:00.284Z,8.16
2018-05-04T02:18:00.195Z,8.07
2018-05-04T02:19:00.134Z,8.04
2018-05-04T02:20:00.031Z,8.08
2018-05-04T02:20:59.962Z,7.93
2018-05-04T02:21:59.869Z,7.97
2018-05-04T02:22:59.793Z,8.00
2018-05-04T02:23:59.709Z,7.85
2018-05-04T02:24:59.634Z,7.89
2018-05-04T02:25:59.546Z,7.90
2018-05-04T02:26:59.471Z,7.90
2018-05-04T02:27:59.383Z,7.85
2018-05-04T02:28:59.298Z,7.90
2018-05-04T02:29:59.232Z,7.75
2018-05-04T02:30:59.133Z,7.80
2018-05-04T02:31:59.061Z,7.74
2018-05-04T02:32:58.979Z,7.74
2018-05-04T02:33:58.897Z,7.68
2018-05-04T02:34:58.810Z,7.77
2018-05-04T02:35:58.734Z,7.74
2018-05-04T02:36:58.644Z,7.74
2018-05-04T02:37:58.570Z,7.63
2018-05-04T02:38:58.483Z,7.63
2018-05-04T02:39:58.414Z,7.58
2018-05-04T02:40:58.322Z,7.55
2018-05-04T02:41:58.236Z,7.64
2018-05-04T02:42:58.161Z,7.50
2018-05-04T02:43:58.073Z,7.52
2018-05-04T02:44:57.998Z,7.52
2018-05-04T02:45:57.914Z,7.52
2018-05-04T02:46:57.838Z,7.50
2018-05-04T02:47:57.746Z,7.40
2018-05-04T02:48:57.671Z,7.45
2018-05-04T02:49:57.585Z,7.42
2018-05-04T02:50:57.499Z,7.42
2018-05-04T02:51:57.423Z,7.43
2018-05-04T02:52:57.338Z,7.34
2018-05-04T02:53:57.266Z,7.43
2018-05-04T02:54:57.173Z,7.39
2018-05-04T02:55:57.100Z,7.39
2018-05-04T02:56:57.010Z,7.31
2018-05-04T02:57:56.937Z,7.28
2018-05-04T02:58:56.847Z,7.27
2018-05-04T02:59:56.771Z,7.28
2018-05-04T03:00:56.685Z,7.32
2018-05-04T03:01:56.598Z,7.30
2018-05-04T03:02:56.523Z,7.27
2018-05-04T03:03:56.438Z,7.30
2018-05-04T03:04:56.363Z,7.27
2018-05-04T03:05:56.275Z,7.25
2018-05-04T03:06:56.200Z,7.15
2018-05-04T03:07:56.113Z,7.15
2018-05-04T03:08:56.037Z,7.20
2018-05-04T03:09:55.951Z,7.20
2018-05-04T03:10:55.861Z,7.13
2018-05-04T03:11:55.795Z,7.20
2018-05-04T03:12:55.704Z,7.09
2018-05-04T03:13:55.630Z,7.10
2018-05-04T03:14:55.542Z,7.15
2018-05-04T03:15:55.464Z,7.12
2018-05-04T03:16:55.377Z,7.16
2018-05-04T03:17:55.290Z,7.13
2018-05-04T03:18:55.215Z,7.10
2018-05-04T03:19:55.125Z,7.10
2018-05-04T03:20:55.050Z,7.15
2018-05-04T03:21:54.982Z,7.12
2018-05-04T03:22:54.888Z,7.10
2018-05-04T03:23:54.806Z,7.05
2018-05-04T03:24:54.727Z,7.02
2018-05-04T03:25:54.641Z,7.02
2018-05-04T03:26:54.590Z,7.03
2018-05-04T03:27:54.489Z,6.99
2018-05-04T03:28:54.389Z,6.99
2018-05-04T03:29:54.317Z,7.07
2018-05-04T03:30:54.226Z,6.99
2018-05-04T03:31:54.151Z,6.98
2018-05-04T03:32:54.065Z,7.07
2018-05-04T03:33:53.976Z,6.98
2018-05-04T03:34:53.903Z,6.97
2018-05-04T03:35:53.816Z,6.97
2018-05-04T03:36:53.742Z,6.94
2018-05-04T03:37:53.653Z,6.99
2018-05-04T03:38:53.587Z,6.99
2018-05-04T03:39:53.489Z,6.99
2018-05-04T03:40:53.414Z,6.89
2018-05-04T03:41:53.326Z,6.87
2018-05-04T03:42:53.298Z,6.94
2018-05-04T03:43:53.167Z,6.92
2018-05-04T03:44:53.079Z,6.92
2018-05-04T03:45:53.017Z,6.88
2018-05-04T03:46:52.917Z,6.91
2018-05-04T03:47:52.830Z,6.92
2018-05-04T03:48:52.754Z,6.94
2018-05-04T03:49:52.667Z,6.95
2018-05-04T03:50:52.593Z,6.92
2018-05-04T03:51:52.502Z,6.97
2018-05-04T03:52:52.428Z,6.98
2018-05-04T03:53:52.342Z,6.98
2018-05-04T03:54:52.256Z,6.98
2018-05-04T03:55:52.181Z,6.94
2018-05-04T03:56:52.094Z,6.95
2018-05-04T03:57:52.018Z,7.03
2018-05-04T03:58:51.931Z,6.97
2018-05-04T03:59:51.853Z,6.99
2018-05-04T04:00:51.767Z,7.06
2018-05-04T04:01:51.679Z,6.99
2018-05-04T04:02:51.604Z,6.98
2018-05-04T04:03:51.517Z,7.05
2018-05-04T04:04:51.443Z,7.02
2018-05-04T04:05:51.356Z,7.06
2018-05-04T04:06:51.278Z,6.97
2018-05-04T04:07:51.195Z,6.99
2018-05-04T04:08:51.110Z,7.02
2018-05-04T04:09:51.036Z,7.02
2018-05-04T04:10:50.945Z,7.06
2018-05-04T04:11:50.868Z,7.17
2018-05-04T04:12:50.780Z,7.15
2018-05-04T04:13:50.696Z,7.13
2018-05-04T04:14:50.617Z,7.13
2018-05-04T04:15:50.532Z,7.12
2018-05-04T04:16:50.457Z,7.15
2018-05-04T04:17:50.378Z,7.30
2018-05-04T04:18:50.296Z,7.30
2018-05-04T04:19:50.209Z,7.43
2018-05-04T04:20:50.122Z,7.50
2018-05-04T04:21:50.046Z,7.57
2018-05-04T04:22:49.958Z,7.63
2018-05-04T04:23:49.883Z,7.74
2018-05-04T04:24:49.794Z,7.86
2018-05-04T04:25:49.719Z,8.02
2018-05-04T04:26:49.631Z,8.11
2018-05-04T04:27:49.549Z,8.18
2018-05-04T04:28:49.472Z,8.16
2018-05-04T04:29:49.385Z,8.25
2018-05-04T04:30:49.322Z,8.23
2018-05-04T04:31:49.220Z,8.28
2018-05-04T04:32:49.150Z,8.34
2018-05-04T04:33:49.057Z,8.38
2018-05-04T04:34:48.982Z,8.58
2018-05-04T04:35:48.897Z,8.61
2018-05-04T04:36:48.826Z,8.68
2018-05-04T04:37:48.748Z,8.61
2018-05-04T04:38:48.665Z,8.68
2018-05-04T04:39:48.570Z,8.74
2018-05-04T04:40:48.483Z,8.70
2018-05-04T04:41:48.409Z,8.91
2018-05-04T04:42:48.322Z,8.94
2018-05-04T04:43:48.252Z,8.92
2018-05-04T04:44:48.173Z,8.84
2018-05-04T04:45:48.086Z,8.87
2018-05-04T04:46:48.001Z,9.05
2018-05-04T04:47:47.922Z,9.01
2018-05-04T04:48:47.833Z,9.10
2018-05-04T04:49:47.759Z,9.05
2018-05-04T04:50:47.672Z,9.15
2018-05-04T04:51:47.597Z,9.23
2018-05-04T04:52:47.509Z,9.38
2018-05-04T04:53:47.436Z,9.29
2018-05-04T04:54:47.353Z,9.40
2018-05-04T04:55:47.274Z,9.68
2018-05-04T04:56:47.200Z,9.90
2018-05-04T04:57:47.100Z,10.15
2018-05-04T04:58:47.025Z,10.23
2018-05-04T04:59:46.936Z,10.20
2018-05-04T05:00:46.860Z,10.17
2018-05-04T05:01:46.780Z,10.17
2018-05-04T05:02:46.698Z,10.14
2018-05-04T05:03:46.613Z,10.30
2018-05-04T05:04:46.537Z,10.33
2018-05-04T05:05:46.452Z,10.27
2018-05-04T05:06:46.376Z,10.27
2018-05-04T05:07:46.300Z,10.33
2018-05-04T05:08:46.213Z,10.27
2018-05-04T05:09:46.139Z,10.26
2018-05-04T05:10:46.054Z,10.33
2018-05-04T05:11:45.974Z,10.38
2018-05-04T05:12:45.886Z,10.44
2018-05-04T05:13:45.812Z,10.47
2018-05-04T05:14:45.728Z,10.52
2018-05-04T05:15:45.652Z,10.51
2018-05-04T05:16:45.563Z,10.52
2018-05-04T05:17:45.489Z,10.56
2018-05-04T05:18:45.403Z,10.59
2018-05-04T05:19:45.325Z,10.61
2018-05-04T05:20:45.237Z,10.55
2018-05-04T05:21:45.162Z,10.59
2018-05-04T05:22:45.077Z,10.67
2018-05-04T05:23:45.007Z,10.74
2018-05-04T05:24:44.913Z,10.74
2018-05-04T05:25:44.851Z,10.68
2018-05-04T05:26:44.751Z,10.82
2018-05-04T05:27:44.681Z,10.85
2018-05-04T05:28:44.592Z,10.88
2018-05-04T05:29:44.515Z,10.92
2018-05-04T05:30:44.454Z,10.96
2018-05-04T05:31:44.352Z,10.97
2018-05-04T05:32:44.280Z,10.91
2018-05-04T05:33:44.188Z,11.00
2018-05-04T05:34:44.114Z,10.92
2018-05-04T05:35:44.029Z,11.02
2018-05-04T05:36:43.954Z,11.00
2018-05-04T05:37:43.866Z,10.96
2018-05-04T05:38:43.791Z,11.00
2018-05-04T05:39:43.704Z,11.06
2018-05-04T05:40:43.630Z,11.00
2018-05-04T05:41:43.543Z,11.18
2018-05-04T05:42:43.466Z,11.19
2018-05-04T05:43:43.396Z,11.35
2018-05-04T05:44:43.303Z,11.29
2018-05-04T05:45:43.230Z,11.37
2018-05-04T05:46:43.140Z,11.32
2018-05-04T05:47:43.079Z,11.29
2018-05-04T05:48:42.982Z,11.37
2018-05-04T05:49:42.906Z,11.47
2018-05-04T05:50:42.829Z,11.46
2018-05-04T05:51:42.740Z,11.47
2018-05-04T05:52:42.666Z,11.60
2018-05-04T05:53:42.589Z,11.57
2018-05-04T05:54:42.527Z,11.57
2018-05-04T05:55:42.416Z,11.61
2018-05-04T05:56:42.341Z,11.55
2018-05-04T05:57:43.429Z,11.55
2018-05-04T05:58:42.178Z,11.46
2018-05-04T05:59:49.174Z,11.57
2018-05-04T06:00:42.031Z,11.62
2018-05-04T06:01:41.943Z,11.67
2018-05-04T06:02:41.858Z,11.76
2018-05-04T06:03:41.780Z,11.78
2018-05-04T06:04:41.693Z,11.83
2018-05-04T06:05:41.617Z,11.83
2018-05-04T06:06:41.541Z,11.82
2018-05-04T06:07:41.457Z,11.80
2018-05-04T06:08:41.382Z,11.90
2018-05-04T06:09:41.293Z,11.88
2018-05-04T06:10:41.222Z,11.98
2018-05-04T06:11:41.143Z,11.90
2018-05-04T06:12:41.058Z,11.94
2018-05-04T06:13:40.982Z,11.90
2018-05-04T06:14:40.896Z,12.01
2018-05-04T06:15:40.817Z,12.10
2018-05-04T06:16:40.731Z,12.09
2018-05-04T06:17:40.656Z,12.16
2018-05-04T06:18:40.587Z,12.20
2018-05-04T06:19:40.495Z,12.24
2018-05-04T06:20:40.427Z,12.28
2018-05-04T06:21:40.334Z,12.31
2018-05-04T06:22:40.258Z,12.35
2018-05-04T06:23:40.170Z,12.38
2018-05-04T06:24:40.094Z,12.32
2018-05-04T06:25:40.020Z,12.42
2018-05-04T06:26:39.932Z,12.42
2018-05-04T06:27:39.857Z,12.54
2018-05-04T06:28:39.770Z,12.50
2018-05-04T06:29:39.693Z,12.37
2018-05-04T06:30:39.619Z,12.47
2018-05-04T06:31:39.538Z,12.50
2018-05-04T06:32:39.459Z,12.52
2018-05-04T06:33:39.375Z,12.60
2018-05-04T06:34:39.297Z,12.59
2018-05-04T06:35:39.219Z,12.68
2018-05-04T06:36:39.132Z,12.75
2018-05-04T06:37:39.058Z,12.79
2018-05-04T06:38:38.971Z,12.86
2018-05-04T06:39:38.965Z,12.93
2018-05-04T06:40:38.822Z,12.95
2018-05-04T06:41:38.735Z,12.92
2018-05-04T06:42:38.663Z,12.95
2018-05-04T06:43:38.584Z,13.00
2018-05-04T06:44:38.498Z,13.11
2018-05-04T06:45:38.432Z,13.08
2018-05-04T06:46:38.334Z,13.12
2018-05-04T06:47:38.261Z,13.14
2018-05-04T06:48:38.239Z,13.25
2018-05-04T06:49:38.110Z,13.28
2018-05-04T06:50:38.023Z,13.38
2018-05-04T06:51:37.946Z,13.42
2018-05-04T06:52:37.859Z,13.45
2018-05-04T06:53:37.785Z,13.57
2018-05-04T06:54:37.701Z,13.55
2018-05-04T06:55:37.625Z,13.64
2018-05-04T06:56:37.550Z,13.75
2018-05-04T06:57:37.462Z,13.66
2018-05-04T06:58:37.388Z,13.79
2018-05-04T06:59:37.312Z,13.75
2018-05-04T07:00:37.224Z,13.75
2018-05-04T07:01:37.156Z,13.69
2018-05-04T07:02:37.074Z,13.78
2018-05-04T07:03:36.997Z,13.71
2018-05-04T07:04:36.912Z,13.63
2018-05-04T07:05:36.836Z,13.70
2018-05-04T07:06:36.748Z,13.70
2018-05-04T07:07:36.675Z,13.78
2018-05-04T07:08:36.600Z,13.78
2018-05-04T07:09:36.514Z,13.77
2018-05-04T07:10:36.439Z,13.87
2018-05-04T07:11:36.350Z,13.97
2018-05-04T07:12:36.273Z,14.04
2018-05-04T07:13:36.199Z,14.32
2018-05-04T07:14:36.112Z,14.37
2018-05-04T07:15:36.037Z,14.37
2018-05-04T07:16:35.962Z,14.29
2018-05-04T07:17:35.875Z,14.42
2018-05-04T07:18:35.800Z,14.54
2018-05-04T07:19:35.726Z,14.73
2018-05-04T07:20:35.651Z,14.86
2018-05-04T07:21:35.565Z,14.95
2018-05-04T07:22:35.490Z,15.10
2018-05-04T07:23:35.416Z,15.34
2018-05-04T07:24:35.324Z,15.78
2018-05-04T07:25:35.250Z,15.93
2018-05-04T07:26:35.177Z,15.72
2018-05-04T07:27:35.091Z,15.82
2018-05-04T07:28:35.080Z,16.07
2018-05-04T07:29:34.941Z,16.56
2018-05-04T07:30:34.866Z,16.97
2018-05-04T07:31:34.778Z,17.49
2018-05-04T07:32:34.717Z,17.77
2018-05-04T07:33:34.628Z,18.27
2018-05-04T07:34:34.553Z,18.55
2018-05-04T07:35:34.476Z,18.80
2018-05-04T07:36:34.390Z,18.81
2018-05-04T07:37:34.314Z,19.58
2018-05-04T07:38:34.239Z,19.76
2018-05-04T07:39:34.167Z,20.48
2018-05-04T07:40:34.092Z,20.52
2018-05-04T07:41:34.017Z,19.78
2018-05-04T07:42:33.943Z,19.10
2018-05-04T07:43:33.866Z,19.26
2018-05-04T07:44:33.790Z,19.29
2018-05-04T07:45:33.715Z,19.18
2018-05-04T07:46:33.647Z,19.33
2018-05-04T07:47:33.568Z,19.80
2018-05-04T07:48:33.495Z,19.84
2018-05-04T07:49:33.417Z,19.76
2018-05-04T07:50:33.343Z,19.73
2018-05-04T07:51:33.265Z,19.77
2018-05-04T07:52:33.197Z,20.33
2018-05-04T07:53:33.128Z,20.59
2018-05-04T07:54:33.068Z,20.69
2018-05-04T07:55:32.980Z,20.84
2018-05-04T07:56:32.906Z,20.95
2018-05-04T07:57:32.830Z,20.82
2018-05-04T07:58:32.756Z,20.41
2018-05-04T07:59:32.695Z,20.28
2018-05-04T08:00:32.620Z,19.76
2018-05-04T08:01:32.541Z,19.51
2018-05-04T08:02:32.466Z,19.55
2018-05-04T08:03:32.404Z,19.25
2018-05-04T08:04:32.328Z,19.46
2018-05-04T08:05:32.266Z,19.74
2018-05-04T08:06:32.197Z,19.61
2018-05-04T08:07:32.120Z,19.23
2018-05-04T08:08:32.068Z,19.29
2018-05-04T08:09:31.970Z,19.32
2018-05-04T08:10:31.906Z,19.99
2018-05-04T08:11:31.830Z,20.50
2018-05-04T08:12:31.767Z,20.17
2018-05-04T08:13:31.697Z,20.59
2018-05-04T08:14:31.618Z,21.24
2018-05-04T08:15:31.545Z,21.50
2018-05-04T08:16:31.487Z,21.72
2018-05-04T08:17:31.411Z,21.43
2018-05-04T08:18:31.351Z,21.38
2018-05-04T08:19:31.271Z,21.13
2018-05-04T08:20:31.205Z,21.13
2018-05-04T08:21:31.132Z,21.06
2018-05-04T08:22:31.078Z,21.28
2018-05-04T08:23:31.000Z,21.37
2018-05-04T08:24:30.920Z,20.99
2018-05-04T08:25:30.846Z,21.56
2018-05-04T08:26:30.782Z,22.03
2018-05-04T08:27:30.794Z,22.21
2018-05-04T08:28:30.645Z,22.68
2018-05-04T08:29:30.572Z,23.31
2018-05-04T08:30:30.508Z,23.42
2018-05-04T08:31:30.431Z,23.39
2018-05-04T08:32:30.370Z,23.32
2018-05-04T08:33:30.299Z,21.71
2018-05-04T08:34:30.232Z,22.17
2018-05-04T08:35:30.202Z,22.52
2018-05-04T08:36:30.096Z,22.91
2018-05-04T08:37:30.038Z,23.20
2018-05-04T08:38:29.971Z,23.25
2018-05-04T08:39:29.901Z,22.58
2018-05-04T08:40:29.828Z,22.88
2018-05-04T08:41:29.772Z,22.45
2018-05-04T08:42:29.701Z,22.51
2018-05-04T08:43:29.620Z,22.39
2018-05-04T08:44:29.571Z,22.67
2018-05-04T08:45:29.484Z,22.67
2018-05-04T08:46:29.421Z,21.94
2018-05-04T08:47:29.373Z,21.59
2018-05-04T08:48:29.285Z,21.58
2018-05-04T08:49:29.223Z,22.25
2018-05-04T08:50:29.163Z,22.82
2018-05-04T08:51:29.083Z,23.02
2018-05-04T08:52:29.025Z,23.54
2018-05-04T08:53:28.959Z,23.39
2018-05-04T08:54:28.957Z,22.67
2018-05-04T08:55:28.825Z,22.68
2018-05-04T08:56:28.760Z,22.70
2018-05-04T08:57:28.797Z,23.35
2018-05-04T08:58:28.625Z,23.83
2018-05-04T08:59:28.559Z,24.49
2018-05-04T09:00:28.497Z,24.34
2018-05-04T09:01:28.427Z,24.10
2018-05-04T09:02:28.359Z,23.20
2018-05-04T09:03:28.300Z,23.25
2018-05-04T09:04:28.225Z,22.65
2018-05-04T09:05:28.291Z,22.85
2018-05-04T09:06:28.100Z,23.50
2018-05-04T09:07:28.095Z,22.85
2018-05-04T09:08:27.962Z,23.07
2018-05-04T09:09:27.900Z,22.86
2018-05-04T09:10:27.837Z,21.67
2018-05-04T09:11:27.774Z,21.82
2018-05-04T09:12:27.699Z,22.15
2018-05-04T09:13:27.636Z,22.61
2018-05-04T09:14:27.576Z,23.00
2018-05-04T09:15:27.512Z,23.31
2018-05-04T09:16:27.438Z,23.28
2018-05-04T09:17:27.378Z,23.39
2018-05-04T09:18:27.314Z,23.54
2018-05-04T09:19:27.249Z,22.98
2018-05-04T09:20:27.180Z,23.32
2018-05-04T09:21:27.111Z,23.50
2018-05-04T09:28:27.076Z,20.59
2018-05-04T09:30:26.526Z,20.50
2018-05-04T09:31:26.475Z,21.03
2018-05-04T09:32:26.388Z,21.77
2018-05-04T09:33:26.331Z,22.33
2018-05-04T09:34:26.279Z,22.62
2018-05-04T09:36:08.326Z,21.88
2018-05-04T09:37:08.253Z,21.75
2018-05-04T09:38:08.189Z,22.39
2018-05-04T09:39:08.129Z,22.72
2018-05-04T09:40:08.057Z,23.00
2018-05-04T09:41:07.991Z,22.90
2018-05-04T09:42:07.916Z,22.05
2018-05-04T09:43:07.852Z,22.24
2018-05-04T09:44:07.789Z,22.30
2018-05-04T09:45:07.714Z,22.46
2018-05-04T09:46:07.653Z,22.88
2018-05-04T09:47:07.582Z,23.23
2018-05-04T10:15:30.441Z,18.88
2018-05-04T10:16:30.331Z,18.20
2018-05-04T10:17:30.267Z,17.89
2018-05-04T10:18:30.211Z,17.95
2018-05-04T10:19:30.120Z,18.35
2018-05-04T10:20:30.045Z,18.62
2018-05-04T10:21:29.970Z,19.25
2018-05-04T10:22:29.906Z,19.51
2018-05-04T10:23:29.819Z,19.86
2018-05-04T10:24:29.744Z,19.94
2018-05-04T10:25:29.669Z,20.16
2018-05-04T10:26:29.609Z,20.38
2018-05-04T10:27:29.536Z,20.69
2018-05-04T10:28:29.459Z,20.55
2018-05-04T10:29:29.386Z,20.57
2018-05-04T10:30:29.309Z,20.58
2018-05-04T10:31:29.317Z,20.85
2018-05-04T10:32:29.165Z,21.04
2018-05-04T10:33:29.085Z,21.03
2018-05-04T10:34:29.008Z,21.10
2018-05-04T10:35:28.966Z,20.97
2018-05-04T10:36:28.858Z,21.35
2018-05-04T10:37:28.795Z,21.49
2018-05-04T10:38:28.799Z,21.90
2018-05-04T10:39:28.647Z,22.68
2018-05-04T10:40:28.572Z,22.39
2018-05-04T10:41:28.497Z,21.72
2018-05-04T10:42:28.433Z,21.68
2018-05-04T10:43:28.345Z,21.61
2018-05-04T10:44:28.270Z,20.43
2018-05-04T10:45:28.196Z,20.13
2018-05-04T10:46:28.134Z,20.08
2018-05-04T10:47:28.059Z,20.48
2018-05-04T10:48:27.984Z,21.13
2018-05-04T10:49:27.909Z,21.91
2018-05-04T10:50:27.848Z,22.92
2018-05-04T10:51:27.790Z,22.94
2018-05-04T10:52:27.698Z,22.80
2018-05-04T10:53:27.637Z,22.97
2018-05-04T10:54:27.561Z,23.76
2018-05-04T10:55:27.485Z,24.52
2018-05-04T10:56:27.421Z,25.13
2018-05-04T10:57:27.347Z,25.09
2018-05-04T10:58:27.289Z,25.28
2018-05-04T10:59:27.238Z,25.51
2018-05-04T11:00:27.149Z,24.58
2018-05-04T11:01:27.089Z,24.65
2018-05-04T11:02:27.030Z,23.83
2018-05-04T11:03:26.951Z,23.73
2018-05-04T11:04:26.888Z,23.98
2018-05-04T11:05:26.878Z,24.57
2018-05-04T11:06:26.749Z,24.64
2018-05-04T11:07:26.686Z,24.60
2018-05-04T11:08:26.625Z,24.61
2018-05-04T11:09:26.562Z,24.71
2018-05-04T11:10:26.513Z,25.45
2018-05-04T11:11:26.438Z,25.10
2018-05-04T11:12:26.375Z,25.23
2018-05-04T11:13:26.313Z,25.33
2018-05-04T11:14:26.245Z,24.81
2018-05-04T11:15:26.174Z,23.94
2018-05-04T11:16:26.112Z,23.39
2018-05-04T11:17:26.048Z,23.72
2018-05-04T11:18:25.995Z,24.21
2018-05-04T11:19:25.957Z,24.13
2018-05-04T11:20:25.851Z,24.40
2018-05-04T11:21:25.790Z,24.67
2018-05-04T11:22:25.724Z,23.72
2018-05-04T11:23:25.661Z,24.58
2018-05-04T11:24:25.601Z,25.15
2018-05-04T11:25:25.550Z,25.40
2018-05-04T11:26:25.479Z,25.17
2018-05-04T11:27:25.415Z,25.72
2018-05-04T11:28:25.353Z,26.05
2018-05-04T11:29:25.293Z,25.43
2018-05-04T11:30:25.225Z,25.72
2018-05-04T11:31:25.163Z,25.85
2018-05-04T11:32:25.089Z,26.20
2018-05-04T11:33:25.026Z,26.07
2018-05-04T11:34:24.964Z,26.43
2018-05-04T11:35:24.900Z,26.10
2018-05-04T11:36:24.839Z,25.69
2018-05-04T11:37:24.792Z,24.80
2018-05-04T11:38:24.716Z,25.23
2018-05-04T11:39:24.653Z,25.94
2018-05-04T11:40:24.590Z,26.06
2018-05-04T11:41:24.527Z,26.65
2018-05-04T11:42:24.467Z,26.76
2018-05-04T11:43:24.405Z,26.81
2018-05-04T11:44:24.339Z,26.94
2018-05-04T11:45:24.288Z,26.76
2018-05-04T11:46:24.218Z,27.07
2018-05-04T11:47:24.153Z,27.24
2018-05-04T11:48:24.092Z,26.58
2018-05-04T11:49:24.029Z,26.32
2018-05-04T11:50:23.967Z,25.52
2018-05-04T11:51:23.904Z,25.18
2018-05-04T11:52:23.842Z,24.58
2018-05-04T11:53:23.780Z,24.27
2018-05-04T11:54:23.715Z,25.17
2018-05-04T11:55:23.652Z,25.33
2018-05-04T11:56:23.579Z,25.97
2018-05-04T11:57:23.541Z,26.10
2018-05-04T11:58:23.456Z,26.57
2018-05-04T11:59:23.407Z,25.99
2018-05-04T12:00:23.330Z,25.60
2018-05-04T12:01:23.269Z,25.99
2018-05-04T12:02:23.287Z,25.42
2018-05-04T12:03:23.142Z,25.75
2018-05-04T12:04:23.078Z,25.87
2018-05-04T12:05:23.016Z,26.12
2018-05-04T12:06:22.953Z,25.18
2018-05-04T12:07:22.892Z,25.18
2018-05-04T12:08:22.828Z,24.95
2018-05-04T12:09:22.767Z,25.45
2018-05-04T12:10:22.705Z,26.07
2018-05-04T12:11:22.645Z,26.15
2018-05-04T12:12:22.581Z,25.92
2018-05-04T12:13:22.546Z,25.98
2018-05-04T12:14:22.454Z,25.67
2018-05-04T12:15:22.393Z,26.07
2018-05-04T12:16:22.389Z,26.45
2018-05-04T12:17:22.256Z,26.62
2018-05-04T12:18:22.196Z,26.70
2018-05-04T12:19:22.134Z,27.04
2018-05-04T12:20:22.081Z,26.85
2018-05-04T12:21:22.010Z,26.89
2018-05-04T12:22:21.946Z,25.18
2018-05-04T12:23:21.882Z,25.54
2018-05-04T12:24:21.820Z,25.76
2018-05-04T12:25:21.757Z,25.47
2018-05-04T12:26:21.695Z,26.28
2018-05-04T12:27:21.630Z,26.92
2018-05-04T12:28:21.569Z,26.82
2018-05-04T12:29:21.507Z,26.50
2018-05-04T12:30:21.447Z,25.60
2018-05-04T12:31:21.395Z,25.10
2018-05-04T12:32:21.313Z,25.23
2018-05-04T12:33:21.247Z,24.50
2018-05-04T12:34:21.249Z,24.90
2018-05-04T12:35:21.120Z,25.24
2018-05-04T12:36:21.056Z,25.27
2018-05-04T12:37:20.995Z,25.14
2018-05-04T12:38:20.931Z,24.78
2018-05-04T12:39:20.870Z,25.28
2018-05-04T12:40:20.807Z,25.69
2018-05-04T12:41:20.745Z,26.06
2018-05-04T12:42:20.684Z,26.43
2018-05-04T12:43:20.623Z,26.17
2018-05-04T12:44:20.560Z,26.37
2018-05-04T12:45:20.502Z,26.55
2018-05-04T12:46:20.432Z,26.76
2018-05-04T12:47:20.371Z,26.72
2018-05-04T12:48:20.308Z,27.13
2018-05-04T12:49:20.247Z,27.03
2018-05-04T12:50:20.188Z,26.88
2018-05-04T12:51:20.111Z,26.92
2018-05-04T12:52:20.048Z,27.13
2018-05-04T12:53:19.985Z,26.70
2018-05-04T12:54:19.923Z,26.06
2018-05-04T12:55:19.873Z,25.94
2018-05-04T12:56:19.803Z,25.54
2018-05-04T12:57:19.735Z,25.76
2018-05-04T12:58:19.673Z,25.94
2018-05-04T12:59:19.610Z,26.33
2018-05-04T13:00:19.548Z,26.77
2018-05-04T13:01:19.486Z,26.58
2018-05-04T13:02:19.424Z,26.92
2018-05-04T13:03:19.374Z,25.91
2018-05-04T13:04:19.289Z,26.01
2018-05-04T13:05:19.225Z,26.23
2018-05-04T13:06:19.173Z,26.52
2018-05-04T13:07:19.104Z,26.97
2018-05-04T13:08:19.038Z,27.14
2018-05-04T13:09:18.974Z,27.37
2018-05-04T13:10:18.912Z,27.70
2018-05-04T13:11:18.855Z,27.77
2018-05-04T13:12:18.785Z,27.29
2018-05-04T13:13:18.725Z,26.76
2018-05-04T13:14:18.676Z,26.66
2018-05-04T13:15:18.606Z,24.55
2018-05-04T13:16:18.538Z,25.40
2018-05-04T13:17:18.488Z,25.25
2018-05-04T13:18:18.411Z,25.10
2018-05-04T13:19:18.337Z,24.71
2018-05-04T13:20:18.275Z,24.77
2018-05-04T13:21:18.212Z,24.83
2018-05-04T13:22:18.151Z,24.90
2018-05-04T13:23:18.132Z,25.18
2018-05-04T13:24:18.027Z,25.23
2018-05-04T13:25:17.963Z,25.28
2018-05-04T13:26:17.906Z,24.40
2018-05-04T13:27:17.843Z,24.22
2018-05-04T13:28:17.775Z,24.35
2018-05-04T13:29:17.717Z,24.13
2018-05-04T13:30:17.652Z,24.27
2018-05-04T13:31:17.591Z,24.12
2018-05-04T13:32:17.515Z,23.70
2018-05-04T13:33:17.454Z,23.15
2018-05-04T13:34:17.387Z,22.49
2018-05-04T13:35:17.329Z,22.28
2018-05-04T13:36:17.263Z,22.09